Time;durP1;ratioP1;P1;durP2;ratioP2;P2;SDS_P1;SDS_P2;PMS_P1;PMS_P2;Temp;Humidity;BMP_temperature;BMP_pressure;BME280_temperature;BME280_humidity;BME280_pressure;Samples;Min_cycle;Max_cycle;Signal;HPM_P1;HPM_P2
2021/09/12 00:00:40;;;;;;;36.03;22.80;;;17.70;91.70;;;;;;5053728;28;20162;-38
2021/09/12 00:03:06;;;;;;;37.20;23.15;;;17.70;91.40;;;;;;5053633;28;20512;-38
2021/09/12 00:05:33;;;;;;;39.85;22.80;;;17.60;91.90;;;;;;5053825;28;20032;-37
2021/09/12 00:07:58;;;;;;;33.67;20.42;;;17.70;91.50;;;;;;5053407;28;20039;-37
2021/09/12 00:10:24;;;;;;;31.45;20.17;;;17.60;91.60;;;;;;5053958;28;20369;-37
2021/09/12 00:12:50;;;;;;;31.63;18.58;;;17.50;91.90;;;;;;5052507;28;20115;-37
2021/09/12 00:15:16;;;;;;;26.95;19.13;;;17.50;92.10;;;;;;5053774;28;20380;-37
2021/09/12 00:17:41;;;;;;;30.80;20.20;;;17.60;92.00;;;;;;5052413;28;20428;-38
2021/09/12 00:20:08;;;;;;;34.03;20.30;;;17.60;91.90;;;;;;5053490;28;20021;-38
2021/09/12 00:22:34;;;;;;;30.90;19.30;;;17.60;91.60;;;;;;5053232;28;20025;-36
2021/09/12 00:25:01;;;;;;;34.05;18.75;;;17.60;91.70;;;;;;5052850;28;20456;-38
2021/09/12 00:27:27;;;;;;;31.65;18.67;;;17.60;91.70;;;;;;5052924;28;20048;-37
2021/09/12 00:29:53;;;;;;;18.48;11.95;;;17.70;91.00;;;;;;5053084;28;20029;-37
2021/09/12 00:32:18;;;;;;;17.65;12.30;;;17.50;90.20;;;;;;5053026;28;20013;-37
2021/09/12 00:34:44;;;;;;;17.67;10.18;;;17.50;89.10;;;;;;5053067;28;20025;-37
2021/09/12 00:37:09;;;;;;;19.85;10.45;;;17.60;88.90;;;;;;5053181;28;20025;-36
2021/09/12 00:39:35;;;;;;;17.48;9.65;;;17.60;88.80;;;;;;5052996;28;20063;-37
2021/09/12 00:42:01;;;;;;;17.25;9.18;;;17.60;88.10;;;;;;5051604;28;20033;-37
2021/09/12 00:44:26;;;;;;;17.23;9.52;;;17.70;88.10;;;;;;5053233;28;20033;-37
2021/09/12 00:46:53;;;;;;;21.63;9.38;;;17.50;88.10;;;;;;5052763;28;20431;-38
2021/09/12 00:49:20;;;;;;;16.30;10.20;;;17.50;88.60;;;;;;5053169;28;20087;-37
2021/09/12 00:51:45;;;;;;;17.98;9.98;;;17.50;88.30;;;;;;5052922;28;20043;-36
2021/09/12 00:54:12;;;;;;;21.25;11.52;;;17.50;88.20;;;;;;5053229;28;20032;-38
2021/09/12 00:56:40;;;;;;;17.25;8.93;;;17.60;88.60;;;;;;5053142;28;20431;-37
2021/09/12 00:59:10;;;;;;;14.00;9.23;;;17.50;89.20;;;;;;5052835;28;20040;-37
2021/09/12 01:01:39;;;;;;;18.85;10.05;;;17.40;89.80;;;;;;5052844;28;20025;-38
2021/09/12 01:04:04;;;;;;;18.27;10.30;;;17.30;90.30;;;;;;5052715;28;20029;-37
2021/09/12 01:06:31;;;;;;;17.67;11.38;;;17.50;90.40;;;;;;5051155;28;20504;-38
2021/09/12 01:08:58;;;;;;;19.52;10.90;;;17.40;90.80;;;;;;5052307;28;20029;-37
2021/09/12 01:11:24;;;;;;;22.92;12.13;;;17.40;91.00;;;;;;5052674;28;20033;-37
2021/09/12 01:13:50;;;;;;;17.77;12.65;;;17.30;91.30;;;;;;5052393;28;20092;-37
2021/09/12 01:16:18;;;;;;;18.77;11.98;;;17.30;91.70;;;;;;5052403;28;20021;-37
2021/09/12 01:18:44;;;;;;;19.25;13.02;;;17.30;91.80;;;;;;5052264;28;20103;-37
2021/09/12 01:21:11;;;;;;;22.55;13.40;;;17.30;92.00;;;;;;5052380;28;20028;-38
2021/09/12 01:23:37;;;;;;;22.98;12.63;;;17.30;91.90;;;;;;5052429;28;20033;-38
2021/09/12 01:26:03;;;;;;;28.60;14.18;;;17.40;91.20;;;;;;5052254;28;20029;-38
2021/09/12 01:28:29;;;;;;;23.77;15.63;;;17.40;91.00;;;;;;5052443;28;20449;-36
2021/09/12 01:30:55;;;;;;;26.05;16.60;;;17.50;91.00;;;;;;5052429;28;20029;-36
2021/09/12 01:33:21;;;;;;;31.95;16.42;;;17.50;90.90;;;;;;5050831;28;20426;-36
2021/09/12 01:35:47;;;;;;;27.38;16.92;;;17.50;91.10;;;;;;5051071;28;20031;-36
2021/09/12 01:38:12;;;;;;;34.95;16.42;;;17.50;90.70;;;;;;5055289;28;20017;-36
2021/09/12 01:40:38;;;;;;;32.42;16.92;;;17.50;90.90;;;;;;5056323;28;20044;-36
2021/09/12 01:43:04;;;;;;;26.30;17.38;;;17.50;91.10;;;;;;5056302;28;20456;-36
2021/09/12 01:45:29;;;;;;;24.08;15.93;;;17.50;91.00;;;;;;5056496;28;20097;-36
2021/09/12 01:48:01;;;;;;;28.88;17.25;;;17.50;91.20;;;;;;5056350;28;20045;-36
2021/09/12 01:50:27;;;;;;;24.58;15.25;;;17.40;91.50;;;;;;5056084;28;20056;-36
2021/09/12 01:52:53;;;;;;;27.23;17.55;;;17.30;91.90;;;;;;5056152;28;20029;-36
2021/09/12 01:55:18;;;;;;;28.83;17.70;;;17.40;92.00;;;;;;5056297;28;20024;-36
2021/09/12 01:57:45;;;;;;;28.55;18.08;;;17.40;91.80;;;;;;5055992;28;20484;-36
2021/09/12 02:00:11;;;;;;;28.33;18.50;;;17.50;91.00;;;;;;5056021;28;20032;-36
2021/09/12 02:02:36;;;;;;;39.67;17.88;;;17.40;91.40;;;;;;5055938;28;20473;-36
2021/09/12 02:05:03;;;;;;;40.70;22.23;;;17.40;91.80;;;;;;5055899;28;20036;-36
2021/09/12 02:07:29;;;;;;;35.58;22.85;;;17.50;92.00;;;;;;5056009;28;20033;-36
2021/09/12 02:09:55;;;;;;;34.63;22.20;;;17.50;92.10;;;;;;5055740;28;20434;-36
2021/09/12 02:12:21;;;;;;;35.42;22.30;;;17.50;92.00;;;;;;5056096;28;20105;-36
2021/09/12 02:14:46;;;;;;;42.10;23.08;;;17.40;92.30;;;;;;5055722;28;20056;-36
2021/09/12 02:17:12;;;;;;;35.25;21.65;;;17.40;92.40;;;;;;5055576;28;20096;-36
2021/09/12 02:19:37;;;;;;;35.50;21.08;;;17.30;92.50;;;;;;5055548;28;20039;-36
2021/09/12 02:22:03;;;;;;;35.00;21.05;;;17.30;92.90;;;;;;5055708;28;20028;-36
2021/09/12 02:24:29;;;;;;;36.83;25.05;;;17.20;93.10;;;;;;5055586;28;20021;-36
2021/09/12 02:26:54;;;;;;;50.97;27.35;;;17.30;93.00;;;;;;5055467;28;20040;-36
2021/09/12 02:29:20;;;;;;;39.70;24.38;;;17.50;92.30;;;;;;5055336;28;20477;-36
2021/09/12 02:31:45;;;;;;;47.17;25.55;;;17.30;92.50;;;;;;5055431;28;20021;-36
2021/09/12 02:34:11;;;;;;;44.58;23.17;;;17.20;93.10;;;;;;5055639;28;20025;-36
2021/09/12 02:36:37;;;;;;;43.67;22.50;;;17.00;93.50;;;;;;5055357;28;20021;-36
2021/09/12 02:39:03;;;;;;;41.13;23.58;;;17.00;93.70;;;;;;5055771;28;20044;-35
2021/09/12 02:41:29;;;;;;;39.05;22.10;;;17.00;93.90;;;;;;5053961;28;20032;-36
2021/09/12 02:43:54;;;;;;;36.85;21.90;;;16.90;94.00;;;;;;5055656;28;20028;-36
2021/09/12 02:46:20;;;;;;;32.53;21.90;;;16.90;94.20;;;;;;5054913;28;20412;-36
2021/09/12 02:48:46;;;;;;;40.13;23.90;;;16.90;94.30;;;;;;5054603;28;20078;-37
2021/09/12 02:51:11;;;;;;;36.10;21.90;;;16.90;94.40;;;;;;5055352;28;20021;-36
2021/09/12 02:53:37;;;;;;;44.30;25.58;;;16.80;94.40;;;;;;5055080;28;20118;-37
2021/09/12 02:56:03;;;;;;;46.25;24.48;;;16.80;94.50;;;;;;5055483;28;20024;-36
2021/09/12 02:58:29;;;;;;;50.95;26.92;;;16.80;94.50;;;;;;5054953;28;20025;-37
2021/09/12 03:00:54;;;;;;;53.47;27.70;;;16.80;94.30;;;;;;5054931;28;20128;-37
2021/09/12 03:03:20;;;;;;;47.25;27.63;;;16.90;94.20;;;;;;5055063;28;20041;-37
2021/09/12 03:05:46;;;;;;;45.67;27.02;;;17.00;93.80;;;;;;5054923;28;20021;-36
2021/09/12 03:08:11;;;;;;;50.08;26.90;;;16.90;93.80;;;;;;5054982;28;20107;-37
2021/09/12 03:10:37;;;;;;;57.28;29.55;;;17.00;93.90;;;;;;5054741;28;20140;-36
2021/09/12 03:13:03;;;;;;;48.03;27.80;;;17.00;93.80;;;;;;5054751;28;20028;-36
2021/09/12 03:15:28;;;;;;;43.40;25.38;;;17.00;93.80;;;;;;5053645;28;20063;-37
2021/09/12 03:17:54;;;;;;;44.45;27.23;;;17.00;93.80;;;;;;5054869;28;20061;-36
2021/09/12 03:20:20;;;;;;;42.33;24.80;;;16.90;93.60;;;;;;5054753;28;20461;-36
2021/09/12 03:22:45;;;;;;;45.10;24.13;;;16.80;93.70;;;;;;5054729;28;20064;-36
2021/09/12 03:25:11;;;;;;;51.53;27.90;;;16.90;94.00;;;;;;5054967;28;20342;-36
2021/09/12 03:27:37;;;;;;;49.38;26.95;;;17.00;93.60;;;;;;5055126;28;20037;-38
2021/09/12 03:30:04;;;;;;;59.05;28.40;;;16.90;93.30;;;;;;5054557;28;20037;-35
2021/09/12 03:32:29;;;;;;;60.25;31.92;;;17.00;93.40;;;;;;5052902;28;20370;-35
2021/09/12 03:34:55;;;;;;;49.58;29.10;;;16.90;93.20;;;;;;5054482;28;20024;-35
2021/09/12 03:37:20;;;;;;;54.80;28.95;;;17.00;93.10;;;;;;5054207;28;20025;-35
2021/09/12 03:39:46;;;;;;;57.65;30.90;;;16.90;93.10;;;;;;5054140;28;20087;-35
2021/09/12 03:42:11;;;;;;;59.35;29.92;;;17.00;93.20;;;;;;5054235;28;20036;-37
2021/09/12 03:44:37;;;;;;;65.97;31.27;;;17.00;93.10;;;;;;5054053;28;20132;-38
2021/09/12 03:47:03;;;;;;;61.60;30.05;;;17.00;93.00;;;;;;5052475;28;20076;-35
2021/09/12 03:49:28;;;;;;;55.63;29.83;;;16.90;93.10;;;;;;5054067;28;20021;-35
2021/09/12 03:51:54;;;;;;;55.85;29.63;;;16.80;92.90;;;;;;5054062;28;20036;-35
2021/09/12 03:54:20;;;;;;;55.15;29.58;;;17.00;93.00;;;;;;5053795;28;20021;-35
2021/09/12 03:56:45;;;;;;;56.20;30.02;;;16.90;93.00;;;;;;5054069;28;20099;-35
2021/09/12 03:59:11;;;;;;;59.50;31.77;;;16.80;92.80;;;;;;5053975;28;20131;-35
2021/09/12 04:01:36;;;;;;;57.50;29.70;;;16.90;92.90;;;;;;5054063;28;20424;-35
2021/09/12 04:04:02;;;;;;;53.10;28.38;;;16.90;92.90;;;;;;5053698;28;20441;-36
2021/09/12 04:06:28;;;;;;;54.70;27.15;;;16.90;92.90;;;;;;5052224;28;20116;-36
2021/09/12 04:08:54;;;;;;;54.25;26.70;;;16.80;93.00;;;;;;5053727;28;20029;-35
2021/09/12 04:11:20;;;;;;;51.42;28.52;;;16.60;93.50;;;;;;5053547;28;20057;-36
2021/09/12 04:13:46;;;;;;;55.50;29.10;;;16.80;93.40;;;;;;5053470;28;20101;-36
2021/09/12 04:16:12;;;;;;;64.32;33.85;;;16.80;93.20;;;;;;5052119;28;20025;-36
2021/09/12 04:18:38;;;;;;;58.38;30.40;;;16.80;93.10;;;;;;5053229;28;20025;-36
2021/09/12 04:21:04;;;;;;;59.58;29.13;;;16.80;93.30;;;;;;5053349;28;20029;-36
2021/09/12 04:23:30;;;;;;;59.20;30.17;;;16.80;93.00;;;;;;5053503;28;20492;-36
2021/09/12 04:25:55;;;;;;;52.08;30.50;;;16.90;93.10;;;;;;5053256;28;20029;-36
2021/09/12 04:28:21;;;;;;;53.10;29.65;;;16.90;92.80;;;;;;5053295;28;20057;-36
2021/09/12 04:30:47;;;;;;;61.60;30.17;;;16.90;92.80;;;;;;5053430;28;20017;-36
2021/09/12 04:33:12;;;;;;;46.75;27.08;;;16.80;92.70;;;;;;5052829;28;20024;-36
2021/09/12 04:35:38;;;;;;;54.50;28.63;;;16.70;92.90;;;;;;5052970;28;20500;-36
2021/09/12 04:38:04;;;;;;;57.92;29.63;;;16.80;93.40;;;;;;5051564;28;20029;-36
2021/09/12 04:40:31;;;;;;;60.85;28.40;;;16.80;92.90;;;;;;5052806;28;20071;-36
2021/09/12 04:42:56;;;;;;;57.10;28.15;;;16.80;92.80;;;;;;5052747;28;20469;-36
2021/09/12 04:45:22;;;;;;;57.95;29.40;;;16.80;92.90;;;;;;5053023;28;20021;-36
2021/09/12 04:47:47;;;;;;;57.70;30.83;;;16.80;92.70;;;;;;5052720;28;20053;-36
2021/09/12 04:50:13;;;;;;;55.45;30.88;;;16.80;92.80;;;;;;5052850;28;20032;-36
2021/09/12 04:52:39;;;;;;;59.17;30.50;;;16.70;92.90;;;;;;5052942;28;20028;-36
2021/09/12 04:55:05;;;;;;;58.88;27.40;;;16.60;93.10;;;;;;5052551;28;20477;-36
2021/09/12 04:57:31;;;;;;;51.10;26.05;;;16.60;93.00;;;;;;5052615;28;20108;-36
2021/09/12 04:59:56;;;;;;;46.85;27.23;;;16.50;93.30;;;;;;5052576;28;20057;-36
2021/09/12 05:02:22;;;;;;;49.30;28.35;;;16.40;93.50;;;;;;5053187;28;20422;-36
2021/09/12 05:04:47;;;;;;;52.60;27.63;;;16.30;93.70;;;;;;5052540;28;20074;-36
2021/09/12 05:07:13;;;;;;;51.97;29.38;;;16.30;93.80;;;;;;5052486;28;20028;-36
2021/09/12 05:09:39;;;;;;;54.45;27.45;;;16.30;93.60;;;;;;5052451;28;20035;-36
2021/09/12 05:12:04;;;;;;;62.33;30.40;;;16.30;93.50;;;;;;5051859;28;20025;-36
2021/09/12 05:14:30;;;;;;;44.55;25.45;;;16.30;93.40;;;;;;5052427;28;20485;-35
2021/09/12 05:16:56;;;;;;;49.15;26.92;;;16.30;93.30;;;;;;5051236;28;20307;-35
2021/09/12 05:19:21;;;;;;;54.92;26.02;;;16.20;93.10;;;;;;5052358;28;20120;-36
2021/09/12 05:21:47;;;;;;;55.47;26.42;;;16.20;92.70;;;;;;5052368;28;20021;-36
2021/09/12 05:24:12;;;;;;;39.45;23.35;;;16.20;92.20;;;;;;5052558;28;20122;-36
2021/09/12 05:26:38;;;;;;;44.78;21.67;;;16.30;91.80;;;;;;5052359;28;20051;-36
2021/09/12 05:29:04;;;;;;;39.88;22.05;;;16.30;91.10;;;;;;5052539;28;20036;-36
2021/09/12 05:31:29;;;;;;;41.83;23.02;;;16.30;90.90;;;;;;5053235;28;20444;-36
2021/09/12 05:33:55;;;;;;;37.13;20.45;;;16.30;90.60;;;;;;5052468;28;20021;-36
2021/09/12 05:36:20;;;;;;;38.25;20.77;;;16.40;90.30;;;;;;5052578;28;20568;-38
2021/09/12 05:38:46;;;;;;;36.35;19.77;;;16.30;89.80;;;;;;5052266;28;20034;-38
2021/09/12 05:41:12;;;;;;;33.95;19.55;;;16.30;89.90;;;;;;5052242;28;20032;-38
2021/09/12 05:43:37;;;;;;;40.28;20.80;;;16.20;89.90;;;;;;5052892;28;20098;-38
2021/09/12 05:46:03;;;;;;;42.88;17.95;;;16.20;89.60;;;;;;5052272;28;20025;-35
2021/09/12 05:48:29;;;;;;;25.48;17.55;;;16.10;89.70;;;;;;5052399;28;20404;-35
2021/09/12 05:50:54;;;;;;;34.05;18.65;;;16.10;89.80;;;;;;5052261;28;20025;-38
2021/09/12 05:53:21;;;;;;;28.88;15.15;;;16.10;89.20;;;;;;5052209;28;20058;-38
2021/09/12 05:55:47;;;;;;;30.60;15.05;;;16.00;88.30;;;;;;5051084;28;20025;-38
2021/09/12 05:58:13;;;;;;;29.15;14.80;;;15.90;88.70;;;;;;5052333;28;20373;-38
2021/09/12 06:00:39;;;;;;;24.02;15.18;;;16.00;88.40;;;;;;5050808;28;20086;-36
2021/09/12 06:03:04;;;;;;;24.17;15.68;;;16.20;87.90;;;;;;5051958;28;20095;-36
2021/09/12 06:05:30;;;;;;;28.23;14.50;;;16.00;88.00;;;;;;5052051;28;20035;-35
2021/09/12 06:07:56;;;;;;;27.80;14.68;;;16.00;88.20;;;;;;5052138;28;20021;-36
2021/09/12 06:10:22;;;;;;;25.73;15.05;;;16.20;87.80;;;;;;5051978;28;20021;-36
2021/09/12 06:12:47;;;;;;;27.48;14.88;;;16.30;87.90;;;;;;5052364;28;20075;-36
2021/09/12 06:15:13;;;;;;;25.38;14.52;;;16.30;87.50;;;;;;5051963;28;20108;-37
2021/09/12 06:17:39;;;;;;;25.67;13.57;;;16.30;87.40;;;;;;5051862;28;20044;-37
2021/09/12 06:20:06;;;;;;;20.85;12.77;;;16.30;87.30;;;;;;5052296;28;20496;-37
2021/09/12 06:22:31;;;;;;;21.80;13.35;;;16.30;87.20;;;;;;5051996;28;20056;-37
2021/09/12 06:24:57;;;;;;;20.65;12.80;;;16.10;87.60;;;;;;5054130;28;20461;-37
2021/09/12 06:27:23;;;;;;;29.42;14.48;;;16.00;87.70;;;;;;5055382;28;20102;-37
2021/09/12 06:29:48;;;;;;;22.25;14.27;;;16.10;87.90;;;;;;5055347;28;20028;-37
2021/09/12 06:32:14;;;;;;;26.70;13.90;;;16.10;87.70;;;;;;5055422;28;20033;-37
2021/09/12 06:34:40;;;;;;;19.63;12.52;;;16.20;87.40;;;;;;5055230;28;20393;-37
2021/09/12 06:37:06;;;;;;;25.45;12.57;;;16.30;87.00;;;;;;5055943;28;20028;-37
2021/09/12 06:39:32;;;;;;;24.08;13.40;;;16.30;87.00;;;;;;5056366;28;20390;-37
2021/09/12 06:41:58;;;;;;;19.58;11.98;;;16.30;87.00;;;;;;5055508;28;20025;-38
2021/09/12 06:44:23;;;;;;;24.73;13.32;;;16.30;86.10;;;;;;5055281;28;20473;-37
2021/09/12 06:46:49;;;;;;;23.33;10.35;;;16.30;86.00;;;;;;5054938;28;20090;-37
2021/09/12 06:49:15;;;;;;;17.33;11.13;;;16.30;85.50;;;;;;5055318;28;20357;-38
2021/09/12 06:51:41;;;;;;;19.13;11.00;;;16.40;85.30;;;;;;5054758;28;20064;-37
2021/09/12 06:54:06;;;;;;;25.08;11.93;;;16.60;85.20;;;;;;5055062;28;20025;-37
2021/09/12 06:56:32;;;;;;;20.13;11.10;;;16.70;85.00;;;;;;5054869;28;20101;-37
2021/09/12 06:58:58;;;;;;;20.25;11.63;;;17.00;84.60;;;;;;5054949;28;20039;-37
2021/09/12 07:01:24;;;;;;;18.73;10.48;;;16.80;84.30;;;;;;5054852;28;20435;-37
2021/09/12 07:03:49;;;;;;;17.27;10.23;;;16.90;84.70;;;;;;5054775;28;20028;-37
2021/09/12 07:06:15;;;;;;;18.63;9.70;;;16.70;85.00;;;;;;5054691;28;20384;-38
2021/09/12 07:08:40;;;;;;;21.42;11.05;;;16.80;84.50;;;;;;5054522;28;20025;-37
2021/09/12 07:11:07;;;;;;;15.95;9.40;;;16.80;83.10;;;;;;5054918;28;20475;-38
2021/09/12 07:13:33;;;;;;;22.05;10.15;;;17.00;83.10;;;;;;5054689;28;20017;-38
2021/09/12 07:15:58;;;;;;;19.13;8.88;;;17.30;82.90;;;;;;5054588;28;20025;-37
2021/09/12 07:18:24;;;;;;;18.33;9.18;;;17.10;81.10;;;;;;5054506;28;20021;-37
2021/09/12 07:20:49;;;;;;;16.40;9.68;;;16.80;82.70;;;;;;5054411;28;20021;-37
2021/09/12 07:23:15;;;;;;;13.48;8.52;;;16.90;82.70;;;;;;5054533;28;20075;-38
2021/09/12 07:25:41;;;;;;;16.70;9.32;;;17.00;81.20;;;;;;5054358;28;20102;-38
2021/09/12 07:28:06;;;;;;;11.30;7.15;;;17.30;81.20;;;;;;5055485;28;20082;-38
2021/09/12 07:30:32;;;;;;;18.60;9.13;;;17.50;80.60;;;;;;5054135;28;20112;-38
2021/09/12 07:32:57;;;;;;;13.70;7.90;;;17.50;79.80;;;;;;5054097;28;20165;-38
2021/09/12 07:35:23;;;;;;;13.90;7.15;;;17.60;80.90;;;;;;5054007;28;20017;-37
2021/09/12 07:37:49;;;;;;;20.98;8.57;;;17.50;80.50;;;;;;5053073;28;20021;-38
2021/09/12 07:40:14;;;;;;;15.57;8.07;;;17.30;81.20;;;;;;5054137;28;20024;-37
2021/09/12 07:42:41;;;;;;;12.05;7.50;;;16.80;81.60;;;;;;5054016;28;20031;-37
2021/09/12 07:45:07;;;;;;;12.57;7.75;;;16.60;82.00;;;;;;5054280;28;20366;-39
2021/09/12 07:47:33;;;;;;;16.92;8.43;;;16.80;82.00;;;;;;5053812;28;20059;-37
2021/09/12 07:49:59;;;;;;;15.98;7.13;;;17.00;81.40;;;;;;5052669;28;20025;-38
2021/09/12 07:52:25;;;;;;;14.88;7.82;;;17.30;81.20;;;;;;5053940;28;20110;-38
2021/09/12 07:54:51;;;;;;;20.33;9.07;;;17.30;80.40;;;;;;5054198;28;20029;-38
2021/09/12 07:57:16;;;;;;;13.38;8.23;;;17.20;80.30;;;;;;5053938;28;20527;-38
2021/09/12 07:59:42;;;;;;;18.23;9.10;;;17.40;79.70;;;;;;5053673;28;20041;-38
2021/09/12 08:02:08;;;;;;;9.00;7.10;;;17.50;78.80;;;;;;5054100;28;20025;-38
2021/09/12 08:04:33;;;;;;;20.90;9.95;;;17.60;78.50;;;;;;5053829;28;20029;-38
2021/09/12 08:06:59;;;;;;;15.13;7.03;;;17.40;78.60;;;;;;5053492;28;20028;-38
2021/09/12 08:09:25;;;;;;;17.08;7.70;;;17.50;78.00;;;;;;5053633;28;20032;-37
2021/09/12 08:11:50;;;;;;;12.80;7.05;;;17.70;77.30;;;;;;5052068;28;20028;-38
2021/09/12 08:14:16;;;;;;;10.75;6.32;;;17.80;77.20;;;;;;5053419;28;20025;-37
2021/09/12 08:16:42;;;;;;;14.57;7.63;;;17.80;76.30;;;;;;5053359;28;20436;-37
2021/09/12 08:19:07;;;;;;;13.40;6.35;;;17.70;76.80;;;;;;5053301;28;20029;-38
2021/09/12 08:21:33;;;;;;;14.23;5.05;;;18.30;74.50;;;;;;5053265;28;20029;-37
2021/09/12 08:23:59;;;;;;;9.90;4.38;;;18.90;72.30;;;;;;5053670;28;20083;-37
2021/09/12 08:26:24;;;;;;;10.45;4.20;;;19.20;71.10;;;;;;5052380;28;20028;-37
2021/09/12 08:28:50;;;;;;;12.38;3.90;;;19.50;69.50;;;;;;5053239;28;20029;-37
2021/09/12 08:31:16;;;;;;;11.90;4.30;;;19.00;69.20;;;;;;5053147;28;20021;-37
2021/09/12 08:33:41;;;;;;;8.40;3.60;;;19.30;68.40;;;;;;5053030;28;20100;-38
2021/09/12 08:36:07;;;;;;;8.43;3.72;;;19.00;69.40;;;;;;5053155;28;20063;-37
2021/09/12 08:38:33;;;;;;;10.57;3.70;;;19.30;68.50;;;;;;5053372;28;20108;-37
2021/09/12 08:40:59;;;;;;;9.55;3.78;;;19.40;68.40;;;;;;5051856;28;20131;-37
2021/09/12 08:43:26;;;;;;;13.70;3.88;;;19.80;67.20;;;;;;5053043;28;20036;-37
2021/09/12 08:45:53;;;;;;;8.00;3.88;;;20.30;65.40;;;;;;5052671;28;20082;-38
2021/09/12 08:48:19;;;;;;;14.23;4.53;;;20.50;64.50;;;;;;5052298;28;20391;-38
2021/09/12 08:50:45;;;;;;;8.00;3.40;;;20.30;64.90;;;;;;5052880;28;20112;-39
2021/09/12 08:53:11;;;;;;;9.05;3.65;;;20.40;64.90;;;;;;5052314;28;20158;-38
2021/09/12 08:55:36;;;;;;;7.30;3.45;;;21.00;63.00;;;;;;5052726;28;20025;-37
2021/09/12 08:58:04;;;;;;;10.10;3.38;;;21.20;62.60;;;;;;5051462;28;20453;-37
2021/09/12 09:00:33;;;;;;;10.38;3.40;;;20.90;62.40;;;;;;5053047;28;20028;-38
2021/09/12 09:03:01;;;;;;;12.48;3.92;;;20.80;62.60;;;;;;5053889;28;20380;-38
2021/09/12 09:05:35;;;;;;;8.95;4.22;;;21.00;62.20;;;;;;5052849;28;20028;-37
2021/09/12 09:08:04;;;;;;;7.65;3.28;;;20.10;64.40;;;;;;5053081;28;20037;-39
2021/09/12 09:10:41;;;;;;;9.02;3.55;;;19.60;66.10;;;;;;5052811;28;20051;-39
2021/09/12 09:13:29;;;;;;;5.93;3.28;;;19.80;66.10;;;;;;5053684;28;20017;-38
2021/09/12 09:15:55;;;;;;;12.55;3.95;;;19.40;67.20;;;;;;5053088;28;20104;-37
2021/09/12 09:18:48;;;;;;;8.43;3.22;;;19.80;66.50;;;;;;5051835;28;20039;-38
2021/09/12 09:21:29;;;;;;;12.80;4.13;;;20.20;64.70;;;;;;5051387;28;20481;-38
2021/09/12 09:24:06;;;;;;;11.02;2.47;;;20.70;62.10;;;;;;5052311;28;20031;-37
2021/09/12 09:26:34;;;;;;;7.82;2.90;;;21.10;61.90;;;;;;5052391;28;20025;-39
2021/09/12 09:29:00;;;;;;;4.50;2.92;;;21.70;59.40;;;;;;5052538;28;20037;-37
2021/09/12 09:31:26;;;;;;;4.50;2.38;;;20.90;60.80;;;;;;5052390;28;20017;-37
2021/09/12 09:33:51;;;;;;;4.75;2.25;;;21.10;60.30;;;;;;5052933;28;20115;-37
2021/09/12 09:36:20;;;;;;;5.90;2.60;;;21.30;59.70;;;;;;5052623;28;20025;-38
2021/09/12 09:38:47;;;;;;;3.60;2.00;;;21.70;58.30;;;;;;5052717;28;20043;-38
2021/09/12 09:41:18;;;;;;;6.03;2.30;;;21.80;58.30;;;;;;5052397;28;20028;-36
2021/09/12 09:43:50;;;;;;;5.47;2.28;;;21.20;58.70;;;;;;5052305;28;20025;-37
2021/09/12 09:46:34;;;;;;;6.07;1.90;;;21.30;58.60;;;;;;5051995;28;20147;-37
2021/09/12 09:49:21;;;;;;;5.50;2.65;;;21.60;57.50;;;;;;5052096;28;20100;-37
2021/09/12 09:52:00;;;;;;;3.45;2.00;;;21.10;60.10;;;;;;5052130;28;20044;-37
2021/09/12 09:54:29;;;;;;;3.93;2.13;;;21.00;60.10;;;;;;5052194;28;20442;-37
2021/09/12 09:56:55;;;;;;;4.13;2.55;;;21.30;58.30;;;;;;5052360;28;20317;-38
2021/09/12 09:59:23;;;;;;;5.95;2.83;;;21.40;57.80;;;;;;5055185;28;20055;-38
2021/09/12 10:01:50;;;;;;;4.60;2.10;;;21.40;57.20;;;;;;5056317;28;20055;-39
2021/09/12 10:04:17;;;;;;;5.82;2.38;;;21.60;56.90;;;;;;5055883;28;20028;-38
2021/09/12 10:06:43;;;;;;;5.68;2.40;;;21.80;56.80;;;;;;5056365;28;20025;-38
2021/09/12 10:09:11;;;;;;;6.90;2.75;;;22.80;54.30;;;;;;5056204;28;20335;-38
2021/09/12 10:11:38;;;;;;;9.50;2.88;;;22.40;53.00;;;;;;5055731;28;20025;-37
2021/09/12 10:14:05;;;;;;;6.88;2.83;;;21.20;56.80;;;;;;5055741;28;20020;-38
2021/09/12 10:16:32;;;;;;;11.50;3.08;;;20.70;58.60;;;;;;5055812;28;20029;-37
2021/09/12 10:18:58;;;;;;;7.43;2.92;;;20.90;58.10;;;;;;5055401;28;20024;-37
2021/09/12 10:21:30;;;;;;;4.30;2.50;;;20.80;58.30;;;;;;5055417;28;20386;-37
2021/09/12 10:24:04;;;;;;;7.88;2.85;;;20.70;59.30;;;;;;5055690;28;20032;-37
2021/09/12 10:26:33;;;;;;;7.95;4.55;;;20.60;59.90;;;;;;5055581;28;20060;-38
2021/09/12 10:28:59;;;;;;;4.35;2.97;;;21.30;57.40;;;;;;5055312;28;20037;-38
2021/09/12 10:31:29;;;;;;;6.95;2.92;;;22.20;55.10;;;;;;5054874;28;20029;-38
2021/09/12 10:34:11;;;;;;;;;;;22.70;52.70;;;;;;5055927;28;20067;-37
2021/09/12 10:36:39;;;;;;;8.50;3.65;;;21.80;55.90;;;;;;5054862;28;19908;-38
2021/09/12 10:39:23;;;;;;;5.15;2.55;;;21.40;56.90;;;;;;5055002;28;20114;-38
2021/09/12 10:42:16;;;;;;;6.20;2.67;;;21.60;55.90;;;;;;5054672;28;20116;-38
2021/09/12 10:44:42;;;;;;;8.15;2.90;;;21.80;55.60;;;;;;5054722;28;20116;-37
2021/09/12 10:47:13;;;;;;;10.50;3.25;;;20.90;57.90;;;;;;5054421;28;20127;-38
2021/09/12 10:49:39;;;;;;;6.22;2.85;;;20.50;59.00;;;;;;5054776;28;20067;-37
2021/09/12 10:52:09;;;;;;;7.47;3.65;;;20.30;60.30;;;;;;5055169;28;20036;-37
2021/09/12 10:55:07;;;;;;;9.57;4.20;;;20.40;59.80;;;;;;5055043;28;20068;-38
2021/09/12 10:57:36;;;;;;;11.00;3.28;;;20.80;58.80;;;;;;5052999;28;20385;-38
2021/09/12 11:00:04;;;;;;;6.60;3.58;;;21.70;56.30;;;;;;5053807;28;20307;-38
2021/09/12 11:02:31;;;;;;;7.75;3.60;;;22.10;54.90;;;;;;5053237;28;20029;-38
2021/09/12 11:04:57;;;;;;;5.55;3.50;;;22.30;54.40;;;;;;5054717;28;20025;-38
2021/09/12 11:07:22;;;;;;;9.85;4.03;;;22.60;53.30;;;;;;5055239;28;20028;-37
2021/09/12 11:09:49;;;;;;;6.15;3.60;;;21.70;55.30;;;;;;5053425;28;20064;-38
2021/09/12 11:12:15;;;;;;;10.57;3.67;;;21.50;55.90;;;;;;5054578;28;20029;-37
2021/09/12 11:14:41;;;;;;;6.40;3.72;;;21.30;56.90;;;;;;5054773;28;20051;-38
2021/09/12 11:17:11;;;;;;;12.60;4.32;;;20.90;58.10;;;;;;5054576;28;20028;-37
2021/09/12 11:19:38;;;;;;;7.38;4.63;;;20.50;59.80;;;;;;5054634;28;20036;-37
2021/09/12 11:22:04;;;;;;;9.63;4.85;;;20.80;58.80;;;;;;5054456;28;20041;-38
2021/09/12 11:24:30;;;;;;;12.40;4.85;;;20.80;58.50;;;;;;5054379;28;20384;-37
2021/09/12 11:26:57;;;;;;;6.18;3.88;;;21.10;57.60;;;;;;5054485;28;20119;-38
2021/09/12 11:29:35;;;;;;;10.57;3.97;;;21.40;56.30;;;;;;5053958;28;20033;-37
2021/09/12 11:32:03;;;;;;;6.20;3.67;;;21.40;56.50;;;;;;5054736;28;20473;-38
2021/09/12 11:34:30;;;;;;;8.32;4.07;;;21.30;56.30;;;;;;5054783;28;20021;-37
2021/09/12 11:37:02;;;;;;;8.88;3.25;;;22.10;53.80;;;;;;5054245;28;20481;-37
2021/09/12 11:39:39;;;;;;;10.65;3.05;;;22.80;52.10;;;;;;5055599;28;20411;-37
2021/09/12 11:42:09;;;;;;;5.18;2.80;;;21.70;54.50;;;;;;5054128;28;20053;-38
2021/09/12 11:44:44;;;;;;;7.57;3.10;;;21.90;54.30;;;;;;5054283;28;20123;-38
2021/09/12 11:47:11;;;;;;;5.85;3.17;;;21.70;54.90;;;;;;5053780;28;20106;-37
2021/09/12 11:49:39;;;;;;;9.75;3.67;;;21.20;56.40;;;;;;5053826;28;20021;-38
2021/09/12 11:52:05;;;;;;;8.25;3.13;;;21.30;56.30;;;;;;5054029;28;20032;-38
2021/09/12 11:54:32;;;;;;;7.70;3.13;;;21.10;57.40;;;;;;5052405;28;20029;-38
2021/09/12 11:57:08;;;;;;;8.30;3.45;;;21.80;55.20;;;;;;5053736;28;20028;-38
2021/09/12 11:59:42;;;;;;;7.68;3.20;;;22.50;52.00;;;;;;5054021;28;20025;-38
2021/09/12 12:02:13;;;;;;;4.93;2.92;;;23.50;49.30;;;;;;5052511;28;20033;-38
2021/09/12 12:04:40;;;;;;;5.90;2.38;;;23.30;50.70;;;;;;5053459;28;20040;-37
2021/09/12 12:07:06;;;;;;;4.18;1.92;;;24.00;49.10;;;;;;5053160;28;20017;-37
2021/09/12 12:09:40;;;;;;;5.10;2.20;;;23.90;47.60;;;;;;5053553;28;20029;-37
2021/09/12 12:12:14;;;;;;;5.05;2.10;;;23.30;48.10;;;;;;5053466;28;20025;-37
2021/09/12 12:14:49;;;;;;;8.27;3.40;;;24.00;46.80;;;;;;5053435;28;20032;-37
2021/09/12 12:17:18;;;;;;;7.32;2.88;;;22.90;48.10;;;;;;5053408;28;20021;-37
2021/09/12 12:19:44;;;;;;;4.78;2.20;;;22.20;49.50;;;;;;5053246;28;20028;-38
2021/09/12 12:22:10;;;;;;;4.90;2.28;;;22.50;49.00;;;;;;5053156;28;20017;-38
2021/09/12 12:24:38;;;;;;;3.40;2.63;;;23.30;46.80;;;;;;5053583;28;20055;-38
2021/09/12 12:27:09;;;;;;;7.80;2.70;;;23.60;46.60;;;;;;5053250;28;20059;-38
2021/09/12 12:29:37;;;;;;;5.65;2.90;;;23.40;46.60;;;;;;5053130;28;20037;-38
2021/09/12 12:32:07;;;;;;;9.07;3.22;;;22.50;49.00;;;;;;5035128;28;20444;-38